sensor_id;sensor_type;location;lat;lon;timestamp;temperature;humidity
21772;DHT22;11047;47.904;8.110;2022-12-04T00:00:10;-0.30;99.90
21772;DHT22;11047;47.904;8.110;2022-12-04T00:03:03;-0.80;99.90
21772;DHT22;11047;47.904;8.110;2022-12-04T00:06:09;-0.30;99.90
21772;DHT22;11047;47.904;8.110;2022-12-04T00:10:56;-0.40;99.90
21772;DHT22;11047;47.904;8.110;2022-12-04T00:12:58;-0.30;99.90
21772;DHT22;11047;47.904;8.110;2022-12-04T00:19:14;-0.30;99.90
21772;DHT22;11047;47.904;8.110;2022-12-04T00:25:42;-0.20;99.90
21772;DHT22;11047;47.904;8.110;2022-12-04T00:31:50;-0.40;99.90
21772;DHT22;11047;47.904;8.110;2022-12-04T00:34:38;-0.40;99.90
21772;DHT22;11047;47.904;8.110;2022-12-04T00:38:08;-0.90;99.90
21772;DHT22;11047;47.904;8.110;2022-12-04T00:41:12;-0.20;99.90
21772;DHT22;11047;47.904;8.110;2022-12-04T00:43:59;-0.30;99.90
21772;DHT22;11047;47.904;8.110;2022-12-04T00:47:16;-0.30;99.90
21772;DHT22;11047;47.904;8.110;2022-12-04T00:50:21;-0.30;99.90
21772;DHT22;11047;47.904;8.110;2022-12-04T00:53:36;-0.30;99.90
21772;DHT22;11047;47.904;8.110;2022-12-04T00:59:46;-0.30;99.90
21772;DHT22;11047;47.904;8.110;2022-12-04T01:02:38;-0.20;99.90
21772;DHT22;11047;47.904;8.110;2022-12-04T01:05:40;0.40;99.90
21772;DHT22;11047;47.904;8.110;2022-12-04T01:11:58;-0.20;99.90
21772;DHT22;11047;47.904;8.110;2022-12-04T01:21:42;-0.10;99.90
21772;DHT22;11047;47.904;8.110;2022-12-04T01:24:47;-0.30;99.90
21772;DHT22;11047;47.904;8.110;2022-12-04T01:27:53;-0.20;99.90
21772;DHT22;11047;47.904;8.110;2022-12-04T01:31:31;0.00;99.90
21772;DHT22;11047;47.904;8.110;2022-12-04T01:34:29;-0.30;99.90
21772;DHT22;11047;47.904;8.110;2022-12-04T01:37:30;-0.30;99.90
21772;DHT22;11047;47.904;8.110;2022-12-04T01:40:48;-0.30;99.90
21772;DHT22;11047;47.904;8.110;2022-12-04T01:44:35;-0.30;99.90
21772;DHT22;11047;47.904;8.110;2022-12-04T01:47:37;-0.30;99.90
21772;DHT22;11047;47.904;8.110;2022-12-04T01:51:23;-0.80;99.90
21772;DHT22;11047;47.904;8.110;2022-12-04T01:54:38;-0.30;99.90
21772;DHT22;11047;47.904;8.110;2022-12-04T01:57:30;-0.10;99.90
21772;DHT22;11047;47.904;8.110;2022-12-04T02:00:56;-0.30;99.90
21772;DHT22;11047;47.904;8.110;2022-12-04T02:04:10;-0.30;99.90
21772;DHT22;11047;47.904;8.110;2022-12-04T02:06:44;-0.30;99.90
21772;DHT22;11047;47.904;8.110;2022-12-04T02:09:42;-0.20;99.90
21772;DHT22;11047;47.904;8.110;2022-12-04T02:12:44;-0.30;99.90
21772;DHT22;11047;47.904;8.110;2022-12-04T02:15:46;-0.30;99.90
21772;DHT22;11047;47.904;8.110;2022-12-04T02:19:01;0.30;99.90
21772;DHT22;11047;47.904;8.110;2022-12-04T02:22:06;-0.20;99.90
21772;DHT22;11047;47.904;8.110;2022-12-04T02:25:11;-0.20;99.90
21772;DHT22;11047;47.904;8.110;2022-12-04T02:32:15;-0.30;99.90
21772;DHT22;11047;47.904;8.110;2022-12-04T02:38:26;0.20;99.90
21772;DHT22;11047;47.904;8.110;2022-12-04T02:41:57;-0.30;99.90
21772;DHT22;11047;47.904;8.110;2022-12-04T02:45:40;-1.10;99.90
21772;DHT22;11047;47.904;8.110;2022-12-04T02:48:55;-0.30;99.90
21772;DHT22;11047;47.904;8.110;2022-12-04T02:52:11;-0.30;99.90
21772;DHT22;11047;47.904;8.110;2022-12-04T02:55:29;-0.50;99.90
21772;DHT22;11047;47.904;8.110;2022-12-04T02:58:46;0.10;99.90
21772;DHT22;11047;47.904;8.110;2022-12-04T03:05:10;-0.40;99.90
21772;DHT22;11047;47.904;8.110;2022-12-04T03:08:31;-0.50;99.90
21772;DHT22;11047;47.904;8.110;2022-12-04T03:11:47;-0.60;99.90
21772;DHT22;11047;47.904;8.110;2022-12-04T03:14:59;-0.60;99.90
21772;DHT22;11047;47.904;8.110;2022-12-04T03:28:15;-0.40;99.90
21772;DHT22;11047;47.904;8.110;2022-12-04T03:31:21;-0.70;99.90
21772;DHT22;11047;47.904;8.110;2022-12-04T03:34:47;-0.70;99.90
21772;DHT22;11047;47.904;8.110;2022-12-04T03:37:49;-0.50;99.90
21772;DHT22;11047;47.904;8.110;2022-12-04T03:42:50;-0.50;99.90
21772;DHT22;11047;47.904;8.110;2022-12-04T03:57:52;-0.50;99.90
21772;DHT22;11047;47.904;8.110;2022-12-04T04:00:22;-0.40;99.90
21772;DHT22;11047;47.904;8.110;2022-12-04T04:02:52;-0.50;99.90
21772;DHT22;11047;47.904;8.110;2022-12-04T04:05:21;-0.40;99.90
21772;DHT22;11047;47.904;8.110;2022-12-04T04:07:52;-0.50;99.90
21772;DHT22;11047;47.904;8.110;2022-12-04T04:10:24;-0.50;99.90
21772;DHT22;11047;47.904;8.110;2022-12-04T04:12:56;-0.50;99.90
21772;DHT22;11047;47.904;8.110;2022-12-04T04:15:41;-0.40;99.90
21772;DHT22;11047;47.904;8.110;2022-12-04T04:18:28;-0.30;99.90
21772;DHT22;11047;47.904;8.110;2022-12-04T04:21:15;-0.30;99.90
21772;DHT22;11047;47.904;8.110;2022-12-04T04:24:03;-0.40;99.90
21772;DHT22;11047;47.904;8.110;2022-12-04T04:26:42;-0.40;99.90
21772;DHT22;11047;47.904;8.110;2022-12-04T04:29:12;-0.40;99.90
21772;DHT22;11047;47.904;8.110;2022-12-04T04:31:42;-0.40;99.90
21772;DHT22;11047;47.904;8.110;2022-12-04T04:34:16;-0.10;99.90
21772;DHT22;11047;47.904;8.110;2022-12-04T04:36:52;-0.40;99.90
21772;DHT22;11047;47.904;8.110;2022-12-04T04:39:26;-0.40;99.90
21772;DHT22;11047;47.904;8.110;2022-12-04T04:42:00;-0.10;99.90
21772;DHT22;11047;47.904;8.110;2022-12-04T04:44:35;-0.50;99.90
21772;DHT22;11047;47.904;8.110;2022-12-04T04:47:06;-0.30;99.90
21772;DHT22;11047;47.904;8.110;2022-12-04T04:49:34;-0.50;99.90
21772;DHT22;11047;47.904;8.110;2022-12-04T04:52:03;-0.30;99.90
21772;DHT22;11047;47.904;8.110;2022-12-04T04:54:30;-0.40;99.90
21772;DHT22;11047;47.904;8.110;2022-12-04T04:56:59;-0.40;99.90
21772;DHT22;11047;47.904;8.110;2022-12-04T04:59:26;-0.30;99.90
21772;DHT22;11047;47.904;8.110;2022-12-04T05:01:55;-0.40;99.90
21772;DHT22;11047;47.904;8.110;2022-12-04T05:04:22;-0.50;99.90
21772;DHT22;11047;47.904;8.110;2022-12-04T05:06:49;-0.50;99.90
21772;DHT22;11047;47.904;8.110;2022-12-04T05:09:16;-0.50;99.90
21772;DHT22;11047;47.904;8.110;2022-12-04T05:11:43;-0.60;99.90
21772;DHT22;11047;47.904;8.110;2022-12-04T05:14:10;-0.60;99.90
21772;DHT22;11047;47.904;8.110;2022-12-04T05:16:38;-0.50;99.90
21772;DHT22;11047;47.904;8.110;2022-12-04T05:19:06;-0.60;99.90
21772;DHT22;11047;47.904;8.110;2022-12-04T05:22:05;-0.50;99.90
21772;DHT22;11047;47.904;8.110;2022-12-04T05:24:34;-0.50;99.90
21772;DHT22;11047;47.904;8.110;2022-12-04T05:27:01;-0.50;99.90
21772;DHT22;11047;47.904;8.110;2022-12-04T05:29:28;-0.50;99.90
21772;DHT22;11047;47.904;8.110;2022-12-04T05:31:54;-0.50;99.90
21772;DHT22;11047;47.904;8.110;2022-12-04T05:34:23;-0.50;99.90
21772;DHT22;11047;47.904;8.110;2022-12-04T05:36:50;-0.50;99.90
21772;DHT22;11047;47.904;8.110;2022-12-04T05:39:18;-0.50;99.90
21772;DHT22;11047;47.904;8.110;2022-12-04T05:41:46;-0.50;99.90
21772;DHT22;11047;47.904;8.110;2022-12-04T05:44:13;-0.50;99.90
21772;DHT22;11047;47.904;8.110;2022-12-04T05:46:40;-0.50;99.90
21772;DHT22;11047;47.904;8.110;2022-12-04T05:49:07;-0.30;99.90
21772;DHT22;11047;47.904;8.110;2022-12-04T05:51:35;-0.40;99.90
21772;DHT22;11047;47.904;8.110;2022-12-04T05:54:02;-0.50;99.90
21772;DHT22;11047;47.904;8.110;2022-12-04T05:56:29;-0.50;99.90
21772;DHT22;11047;47.904;8.110;2022-12-04T05:58:56;0.10;99.90
21772;DHT22;11047;47.904;8.110;2022-12-04T06:01:24;-0.40;99.90
21772;DHT22;11047;47.904;8.110;2022-12-04T06:03:51;-0.30;99.90
21772;DHT22;11047;47.904;8.110;2022-12-04T06:06:19;-0.40;99.90
21772;DHT22;11047;47.904;8.110;2022-12-04T06:08:47;-0.50;99.90
21772;DHT22;11047;47.904;8.110;2022-12-04T06:11:17;-0.40;99.90
21772;DHT22;11047;47.904;8.110;2022-12-04T06:13:45;-0.50;99.90
21772;DHT22;11047;47.904;8.110;2022-12-04T06:16:13;-0.50;99.90
21772;DHT22;11047;47.904;8.110;2022-12-04T06:18:40;-0.50;99.90
21772;DHT22;11047;47.904;8.110;2022-12-04T06:21:07;-0.50;99.90
21772;DHT22;11047;47.904;8.110;2022-12-04T06:23:34;-0.40;99.90
21772;DHT22;11047;47.904;8.110;2022-12-04T06:26:03;-0.30;99.90
21772;DHT22;11047;47.904;8.110;2022-12-04T06:28:30;-0.40;99.90
21772;DHT22;11047;47.904;8.110;2022-12-04T06:31:00;-0.40;99.90
21772;DHT22;11047;47.904;8.110;2022-12-04T06:33:27;-0.40;99.90
21772;DHT22;11047;47.904;8.110;2022-12-04T06:35:57;-0.40;99.90
21772;DHT22;11047;47.904;8.110;2022-12-04T06:38:25;-0.30;99.90
21772;DHT22;11047;47.904;8.110;2022-12-04T06:40:52;0.40;99.90
21772;DHT22;11047;47.904;8.110;2022-12-04T06:43:20;-0.30;99.90
21772;DHT22;11047;47.904;8.110;2022-12-04T06:45:47;-0.30;99.90
21772;DHT22;11047;47.904;8.110;2022-12-04T06:48:14;-0.30;99.90
21772;DHT22;11047;47.904;8.110;2022-12-04T06:50:41;-0.20;99.90
21772;DHT22;11047;47.904;8.110;2022-12-04T06:53:08;0.30;99.90
21772;DHT22;11047;47.904;8.110;2022-12-04T06:55:35;-0.20;99.90
21772;DHT22;11047;47.904;8.110;2022-12-04T06:58:02;-0.30;99.90
21772;DHT22;11047;47.904;8.110;2022-12-04T07:00:30;0.10;99.90
21772;DHT22;11047;47.904;8.110;2022-12-04T07:02:57;0.10;99.90
21772;DHT22;11047;47.904;8.110;2022-12-04T07:05:24;-0.30;99.90
21772;DHT22;11047;47.904;8.110;2022-12-04T07:07:53;-0.30;99.90
21772;DHT22;11047;47.904;8.110;2022-12-04T07:10:19;-0.30;99.90
21772;DHT22;11047;47.904;8.110;2022-12-04T07:12:46;-0.30;99.90
21772;DHT22;11047;47.904;8.110;2022-12-04T07:15:13;-0.20;99.90
21772;DHT22;11047;47.904;8.110;2022-12-04T07:17:42;-0.20;99.90
21772;DHT22;11047;47.904;8.110;2022-12-04T07:20:09;-0.20;99.90
21772;DHT22;11047;47.904;8.110;2022-12-04T07:22:36;-0.20;99.90
21772;DHT22;11047;47.904;8.110;2022-12-04T07:25:04;0.30;99.90
21772;DHT22;11047;47.904;8.110;2022-12-04T07:27:31;-0.10;99.90
21772;DHT22;11047;47.904;8.110;2022-12-04T07:29:57;0.10;99.90
21772;DHT22;11047;47.904;8.110;2022-12-04T07:32:25;-0.10;99.90
21772;DHT22;11047;47.904;8.110;2022-12-04T07:34:53;0.00;99.90
21772;DHT22;11047;47.904;8.110;2022-12-04T07:37:20;0.00;99.90
21772;DHT22;11047;47.904;8.110;2022-12-04T07:39:50;0.50;99.90
21772;DHT22;11047;47.904;8.110;2022-12-04T07:42:17;0.00;99.90
21772;DHT22;11047;47.904;8.110;2022-12-04T07:44:44;0.00;99.90
21772;DHT22;11047;47.904;8.110;2022-12-04T07:47:11;0.00;99.90
21772;DHT22;11047;47.904;8.110;2022-12-04T07:49:38;0.00;99.90
21772;DHT22;11047;47.904;8.110;2022-12-04T07:52:06;0.00;99.90
21772;DHT22;11047;47.904;8.110;2022-12-04T07:54:35;0.00;99.90
21772;DHT22;11047;47.904;8.110;2022-12-04T07:57:02;-0.10;99.90
21772;DHT22;11047;47.904;8.110;2022-12-04T07:59:29;-0.10;99.90
21772;DHT22;11047;47.904;8.110;2022-12-04T08:01:55;-0.10;99.90
21772;DHT22;11047;47.904;8.110;2022-12-04T08:04:22;-0.10;99.90
21772;DHT22;11047;47.904;8.110;2022-12-04T08:06:49;0.00;99.90
21772;DHT22;11047;47.904;8.110;2022-12-04T08:09:17;0.00;99.90
21772;DHT22;11047;47.904;8.110;2022-12-04T08:11:44;0.10;99.90
21772;DHT22;11047;47.904;8.110;2022-12-04T08:14:11;0.70;99.90
21772;DHT22;11047;47.904;8.110;2022-12-04T08:16:38;0.10;99.90
21772;DHT22;11047;47.904;8.110;2022-12-04T08:19:05;0.20;99.90
21772;DHT22;11047;47.904;8.110;2022-12-04T08:21:32;0.10;99.90
21772;DHT22;11047;47.904;8.110;2022-12-04T08:24:00;0.50;99.90
21772;DHT22;11047;47.904;8.110;2022-12-04T08:26:30;0.30;99.90
21772;DHT22;11047;47.904;8.110;2022-12-04T08:28:59;0.30;99.90
21772;DHT22;11047;47.904;8.110;2022-12-04T08:31:28;0.30;99.90
21772;DHT22;11047;47.904;8.110;2022-12-04T08:33:57;0.30;99.90
21772;DHT22;11047;47.904;8.110;2022-12-04T08:36:25;0.30;99.90
21772;DHT22;11047;47.904;8.110;2022-12-04T08:38:52;0.30;99.90
21772;DHT22;11047;47.904;8.110;2022-12-04T08:41:21;0.40;99.90
21772;DHT22;11047;47.904;8.110;2022-12-04T08:43:50;0.50;99.90
21772;DHT22;11047;47.904;8.110;2022-12-04T08:46:19;0.40;99.90
21772;DHT22;11047;47.904;8.110;2022-12-04T08:48:46;-0.20;99.90
21772;DHT22;11047;47.904;8.110;2022-12-04T08:51:14;0.40;99.90
21772;DHT22;11047;47.904;8.110;2022-12-04T08:53:42;0.40;99.90
21772;DHT22;11047;47.904;8.110;2022-12-04T08:56:09;0.70;99.90
21772;DHT22;11047;47.904;8.110;2022-12-04T08:58:36;0.50;99.90
21772;DHT22;11047;47.904;8.110;2022-12-04T09:01:06;0.40;99.90
21772;DHT22;11047;47.904;8.110;2022-12-04T09:03:34;0.40;99.90
21772;DHT22;11047;47.904;8.110;2022-12-04T09:06:02;0.40;99.90
21772;DHT22;11047;47.904;8.110;2022-12-04T09:08:30;0.40;99.90
21772;DHT22;11047;47.904;8.110;2022-12-04T09:11:01;0.50;99.90
21772;DHT22;11047;47.904;8.110;2022-12-04T09:13:29;0.50;99.90
21772;DHT22;11047;47.904;8.110;2022-12-04T09:15:55;0.50;99.90
21772;DHT22;11047;47.904;8.110;2022-12-04T09:18:24;0.70;99.90
21772;DHT22;11047;47.904;8.110;2022-12-04T09:20:57;0.60;99.90
21772;DHT22;11047;47.904;8.110;2022-12-04T09:23:24;0.60;99.90
21772;DHT22;11047;47.904;8.110;2022-12-04T09:25:51;0.60;99.90
21772;DHT22;11047;47.904;8.110;2022-12-04T09:28:18;0.70;99.90
21772;DHT22;11047;47.904;8.110;2022-12-04T09:30:46;0.70;99.90
21772;DHT22;11047;47.904;8.110;2022-12-04T09:33:21;0.70;99.90
21772;DHT22;11047;47.904;8.110;2022-12-04T09:35:49;0.80;99.90
21772;DHT22;11047;47.904;8.110;2022-12-04T09:38:16;0.90;99.90
21772;DHT22;11047;47.904;8.110;2022-12-04T09:40:50;1.10;99.90
21772;DHT22;11047;47.904;8.110;2022-12-04T09:43:25;0.90;99.90
21772;DHT22;11047;47.904;8.110;2022-12-04T09:45:59;0.90;99.90
21772;DHT22;11047;47.904;8.110;2022-12-04T09:48:30;0.80;99.90
21772;DHT22;11047;47.904;8.110;2022-12-04T09:51:00;0.90;99.90
21772;DHT22;11047;47.904;8.110;2022-12-04T09:53:36;1.00;99.90
21772;DHT22;11047;47.904;8.110;2022-12-04T09:56:10;1.10;99.90
21772;DHT22;11047;47.904;8.110;2022-12-04T09:58:40;1.20;99.90
21772;DHT22;11047;47.904;8.110;2022-12-04T10:01:18;1.10;99.90
21772;DHT22;11047;47.904;8.110;2022-12-04T10:03:46;1.10;99.90
21772;DHT22;11047;47.904;8.110;2022-12-04T10:06:18;1.00;99.90
21772;DHT22;11047;47.904;8.110;2022-12-04T10:08:52;1.00;99.90
21772;DHT22;11047;47.904;8.110;2022-12-04T10:11:26;0.90;99.90
21772;DHT22;11047;47.904;8.110;2022-12-04T10:14:04;0.90;99.90
21772;DHT22;11047;47.904;8.110;2022-12-04T10:16:45;0.90;99.90
21772;DHT22;11047;47.904;8.110;2022-12-04T10:19:20;1.00;99.90
21772;DHT22;11047;47.904;8.110;2022-12-04T10:21:59;1.00;99.90
21772;DHT22;11047;47.904;8.110;2022-12-04T10:24:37;1.10;99.90
21772;DHT22;11047;47.904;8.110;2022-12-04T10:27:11;1.00;99.90
21772;DHT22;11047;47.904;8.110;2022-12-04T10:29:41;1.30;99.90
21772;DHT22;11047;47.904;8.110;2022-12-04T10:32:17;1.20;99.90
21772;DHT22;11047;47.904;8.110;2022-12-04T10:34:48;1.20;99.90
21772;DHT22;11047;47.904;8.110;2022-12-04T10:37:17;1.20;99.90
21772;DHT22;11047;47.904;8.110;2022-12-04T10:39:49;1.20;99.90
21772;DHT22;11047;47.904;8.110;2022-12-04T10:42:24;1.20;99.90
21772;DHT22;11047;47.904;8.110;2022-12-04T10:44:53;1.30;99.90
21772;DHT22;11047;47.904;8.110;2022-12-04T10:47:21;1.30;99.90
21772;DHT22;11047;47.904;8.110;2022-12-04T10:49:55;1.20;99.90
21772;DHT22;11047;47.904;8.110;2022-12-04T10:52:25;1.20;99.90
21772;DHT22;11047;47.904;8.110;2022-12-04T10:54:55;1.20;99.90
21772;DHT22;11047;47.904;8.110;2022-12-04T10:57:34;1.30;99.90
21772;DHT22;11047;47.904;8.110;2022-12-04T11:00:03;1.20;99.90
21772;DHT22;11047;47.904;8.110;2022-12-04T11:02:32;1.20;99.90
21772;DHT22;11047;47.904;8.110;2022-12-04T11:05:00;1.30;99.90
21772;DHT22;11047;47.904;8.110;2022-12-04T11:07:32;1.40;99.90
21772;DHT22;11047;47.904;8.110;2022-12-04T11:10:03;1.40;99.90
21772;DHT22;11047;47.904;8.110;2022-12-04T11:12:32;1.40;99.90
21772;DHT22;11047;47.904;8.110;2022-12-04T11:15:00;1.40;99.90
21772;DHT22;11047;47.904;8.110;2022-12-04T11:17:27;1.40;99.90
21772;DHT22;11047;47.904;8.110;2022-12-04T11:19:59;1.60;99.90
21772;DHT22;11047;47.904;8.110;2022-12-04T11:22:26;1.60;99.90
21772;DHT22;11047;47.904;8.110;2022-12-04T11:24:56;1.60;99.90
21772;DHT22;11047;47.904;8.110;2022-12-04T11:27:28;1.70;99.90
21772;DHT22;11047;47.904;8.110;2022-12-04T11:29:56;1.80;99.90
21772;DHT22;11047;47.904;8.110;2022-12-04T11:32:26;1.70;99.90
21772;DHT22;11047;47.904;8.110;2022-12-04T11:34:57;1.80;99.90
21772;DHT22;11047;47.904;8.110;2022-12-04T11:37:28;1.80;99.90
21772;DHT22;11047;47.904;8.110;2022-12-04T11:39:57;1.80;99.90
21772;DHT22;11047;47.904;8.110;2022-12-04T11:42:26;1.80;99.90
21772;DHT22;11047;47.904;8.110;2022-12-04T11:44:55;1.70;99.90
21772;DHT22;11047;47.904;8.110;2022-12-04T11:47:24;1.70;99.90
21772;DHT22;11047;47.904;8.110;2022-12-04T11:50:09;1.60;99.90
21772;DHT22;11047;47.904;8.110;2022-12-04T11:52:48;1.60;99.90
21772;DHT22;11047;47.904;8.110;2022-12-04T11:55:24;1.40;99.90
21772;DHT22;11047;47.904;8.110;2022-12-04T11:58:17;1.30;99.90
21772;DHT22;11047;47.904;8.110;2022-12-04T12:00:52;1.30;99.90
21772;DHT22;11047;47.904;8.110;2022-12-04T12:03:22;1.00;99.90
21772;DHT22;11047;47.904;8.110;2022-12-04T12:06:15;1.10;99.90
21772;DHT22;11047;47.904;8.110;2022-12-04T12:08:57;1.20;99.90
21772;DHT22;11047;47.904;8.110;2022-12-04T12:11:31;1.00;99.90
21772;DHT22;11047;47.904;8.110;2022-12-04T12:14:06;0.90;99.90
21772;DHT22;11047;47.904;8.110;2022-12-04T12:16:43;0.90;99.90
21772;DHT22;11047;47.904;8.110;2022-12-04T12:19:35;1.00;99.90
21772;DHT22;11047;47.904;8.110;2022-12-04T12:22:07;0.50;99.90
21772;DHT22;11047;47.904;8.110;2022-12-04T12:24:45;0.60;99.90
21772;DHT22;11047;47.904;8.110;2022-12-04T12:27:36;0.60;99.90
21772;DHT22;11047;47.904;8.110;2022-12-04T12:30:09;0.70;99.90
21772;DHT22;11047;47.904;8.110;2022-12-04T12:32:57;0.70;99.90
21772;DHT22;11047;47.904;8.110;2022-12-04T12:35:29;0.70;99.90
21772;DHT22;11047;47.904;8.110;2022-12-04T12:38:00;0.80;99.90
21772;DHT22;11047;47.904;8.110;2022-12-04T12:40:32;0.90;99.90
21772;DHT22;11047;47.904;8.110;2022-12-04T12:43:08;0.70;99.90
21772;DHT22;11047;47.904;8.110;2022-12-04T12:45:43;0.50;99.90
21772;DHT22;11047;47.904;8.110;2022-12-04T12:48:21;0.50;99.90
21772;DHT22;11047;47.904;8.110;2022-12-04T12:50:53;0.90;99.90
21772;DHT22;11047;47.904;8.110;2022-12-04T12:53:24;0.60;99.90
21772;DHT22;11047;47.904;8.110;2022-12-04T12:55:53;1.20;99.90
21772;DHT22;11047;47.904;8.110;2022-12-04T12:58:27;0.70;99.90
21772;DHT22;11047;47.904;8.110;2022-12-04T13:01:03;0.90;99.90
21772;DHT22;11047;47.904;8.110;2022-12-04T13:03:38;0.80;99.90
21772;DHT22;11047;47.904;8.110;2022-12-04T13:06:12;0.70;99.90
21772;DHT22;11047;47.904;8.110;2022-12-04T13:08:43;0.70;99.90
21772;DHT22;11047;47.904;8.110;2022-12-04T13:11:16;0.70;99.90
21772;DHT22;11047;47.904;8.110;2022-12-04T13:13:47;0.70;99.90
21772;DHT22;11047;47.904;8.110;2022-12-04T13:16:18;0.70;99.90
21772;DHT22;11047;47.904;8.110;2022-12-04T13:18:49;0.80;99.90
21772;DHT22;11047;47.904;8.110;2022-12-04T13:21:29;0.90;99.90
21772;DHT22;11047;47.904;8.110;2022-12-04T13:24:14;0.90;99.90
21772;DHT22;11047;47.904;8.110;2022-12-04T13:26:51;1.00;99.90
21772;DHT22;11047;47.904;8.110;2022-12-04T13:29:35;1.10;99.90
21772;DHT22;11047;47.904;8.110;2022-12-04T13:32:13;1.20;99.90
21772;DHT22;11047;47.904;8.110;2022-12-04T13:34:58;1.30;99.90
21772;DHT22;11047;47.904;8.110;2022-12-04T13:37:57;1.30;99.90
21772;DHT22;11047;47.904;8.110;2022-12-04T13:40:33;1.40;99.90
21772;DHT22;11047;47.904;8.110;2022-12-04T13:43:17;1.40;99.90
21772;DHT22;11047;47.904;8.110;2022-12-04T13:45:48;1.40;99.90
21772;DHT22;11047;47.904;8.110;2022-12-04T13:48:27;1.40;99.90
21772;DHT22;11047;47.904;8.110;2022-12-04T13:51:01;1.50;99.90
21772;DHT22;11047;47.904;8.110;2022-12-04T13:53:30;1.60;99.90
21772;DHT22;11047;47.904;8.110;2022-12-04T13:55:58;1.60;99.90
21772;DHT22;11047;47.904;8.110;2022-12-04T13:58:28;1.70;99.90
21772;DHT22;11047;47.904;8.110;2022-12-04T14:01:03;1.70;99.90
21772;DHT22;11047;47.904;8.110;2022-12-04T14:03:33;1.70;99.90
21772;DHT22;11047;47.904;8.110;2022-12-04T14:06:01;1.70;99.90
21772;DHT22;11047;47.904;8.110;2022-12-04T14:08:36;1.80;99.90
21772;DHT22;11047;47.904;8.110;2022-12-04T14:11:07;1.80;99.90
21772;DHT22;11047;47.904;8.110;2022-12-04T14:13:43;1.80;99.90
21772;DHT22;11047;47.904;8.110;2022-12-04T14:16:19;1.80;99.90
21772;DHT22;11047;47.904;8.110;2022-12-04T14:18:48;1.90;99.90
21772;DHT22;11047;47.904;8.110;2022-12-04T14:21:17;1.90;99.90
21772;DHT22;11047;47.904;8.110;2022-12-04T14:23:44;1.90;99.90
21772;DHT22;11047;47.904;8.110;2022-12-04T14:26:25;1.90;99.90
21772;DHT22;11047;47.904;8.110;2022-12-04T14:29:05;1.80;99.90
21772;DHT22;11047;47.904;8.110;2022-12-04T14:31:37;1.90;99.90
21772;DHT22;11047;47.904;8.110;2022-12-04T14:34:19;1.90;99.90
21772;DHT22;11047;47.904;8.110;2022-12-04T14:36:48;1.90;99.90
21772;DHT22;11047;47.904;8.110;2022-12-04T14:39:22;1.90;99.90
21772;DHT22;11047;47.904;8.110;2022-12-04T14:41:51;1.90;99.90
21772;DHT22;11047;47.904;8.110;2022-12-04T14:44:24;1.90;99.90
21772;DHT22;11047;47.904;8.110;2022-12-04T14:46:56;2.00;99.90
21772;DHT22;11047;47.904;8.110;2022-12-04T14:49:35;2.00;99.90
21772;DHT22;11047;47.904;8.110;2022-12-04T14:52:11;2.00;99.90
21772;DHT22;11047;47.904;8.110;2022-12-04T14:54:43;2.00;99.90
21772;DHT22;11047;47.904;8.110;2022-12-04T14:57:31;2.00;99.90
21772;DHT22;11047;47.904;8.110;2022-12-04T15:00:00;1.90;99.90
21772;DHT22;11047;47.904;8.110;2022-12-04T15:02:33;1.90;99.90
21772;DHT22;11047;47.904;8.110;2022-12-04T15:05:01;2.00;99.90
21772;DHT22;11047;47.904;8.110;2022-12-04T15:07:30;2.00;99.90
21772;DHT22;11047;47.904;8.110;2022-12-04T15:09:59;1.90;99.90
21772;DHT22;11047;47.904;8.110;2022-12-04T15:12:48;2.30;99.90
21772;DHT22;11047;47.904;8.110;2022-12-04T15:15:17;2.00;99.90
21772;DHT22;11047;47.904;8.110;2022-12-04T15:18:02;2.00;99.90
21772;DHT22;11047;47.904;8.110;2022-12-04T15:20:32;2.00;99.90
21772;DHT22;11047;47.904;8.110;2022-12-04T15:23:01;2.00;99.90
21772;DHT22;11047;47.904;8.110;2022-12-04T15:25:34;2.00;99.90
21772;DHT22;11047;47.904;8.110;2022-12-04T15:28:07;2.00;99.90
21772;DHT22;11047;47.904;8.110;2022-12-04T15:30:35;1.90;99.90
21772;DHT22;11047;47.904;8.110;2022-12-04T15:33:09;2.00;99.90
21772;DHT22;11047;47.904;8.110;2022-12-04T15:35:38;2.00;99.90
21772;DHT22;11047;47.904;8.110;2022-12-04T15:38:10;1.90;99.90
21772;DHT22;11047;47.904;8.110;2022-12-04T15:40:49;1.90;99.90
21772;DHT22;11047;47.904;8.110;2022-12-04T15:43:16;1.90;99.90
21772;DHT22;11047;47.904;8.110;2022-12-04T15:45:48;1.90;99.90
21772;DHT22;11047;47.904;8.110;2022-12-04T15:48:24;1.90;99.90
21772;DHT22;11047;47.904;8.110;2022-12-04T15:50:58;1.90;99.90
21772;DHT22;11047;47.904;8.110;2022-12-04T15:53:28;1.90;99.90
21772;DHT22;11047;47.904;8.110;2022-12-04T15:55:58;1.90;99.90
21772;DHT22;11047;47.904;8.110;2022-12-04T15:58:27;2.00;99.90
21772;DHT22;11047;47.904;8.110;2022-12-04T16:00:57;2.00;99.90
21772;DHT22;11047;47.904;8.110;2022-12-04T16:03:28;2.00;99.90
21772;DHT22;11047;47.904;8.110;2022-12-04T16:06:12;2.00;99.90
21772;DHT22;11047;47.904;8.110;2022-12-04T16:08:40;2.00;99.90
21772;DHT22;11047;47.904;8.110;2022-12-04T16:11:25;2.10;99.90
21772;DHT22;11047;47.904;8.110;2022-12-04T16:14:03;2.00;99.90
21772;DHT22;11047;47.904;8.110;2022-12-04T16:16:31;2.00;99.90
21772;DHT22;11047;47.904;8.110;2022-12-04T16:18:59;2.00;99.90
21772;DHT22;11047;47.904;8.110;2022-12-04T16:21:29;2.10;99.90
21772;DHT22;11047;47.904;8.110;2022-12-04T16:24:00;2.00;99.90
21772;DHT22;11047;47.904;8.110;2022-12-04T16:26:28;2.00;99.90
21772;DHT22;11047;47.904;8.110;2022-12-04T16:28:55;2.00;99.90
21772;DHT22;11047;47.904;8.110;2022-12-04T16:31:22;2.00;99.90
21772;DHT22;11047;47.904;8.110;2022-12-04T16:33:50;2.10;99.90
21772;DHT22;11047;47.904;8.110;2022-12-04T16:36:18;2.00;99.90
21772;DHT22;11047;47.904;8.110;2022-12-04T16:38:45;2.00;99.90
21772;DHT22;11047;47.904;8.110;2022-12-04T16:41:13;2.10;99.90
21772;DHT22;11047;47.904;8.110;2022-12-04T16:43:40;2.10;99.90
21772;DHT22;11047;47.904;8.110;2022-12-04T16:46:11;2.10;99.90
21772;DHT22;11047;47.904;8.110;2022-12-04T16:48:40;2.10;99.90
21772;DHT22;11047;47.904;8.110;2022-12-04T16:51:08;2.10;99.90
21772;DHT22;11047;47.904;8.110;2022-12-04T16:53:40;2.10;99.90
21772;DHT22;11047;47.904;8.110;2022-12-04T16:56:08;2.00;99.90
21772;DHT22;11047;47.904;8.110;2022-12-04T16:58:35;2.00;99.90
21772;DHT22;11047;47.904;8.110;2022-12-04T17:01:03;2.00;99.90
21772;DHT22;11047;47.904;8.110;2022-12-04T17:03:32;2.00;99.90
21772;DHT22;11047;47.904;8.110;2022-12-04T17:06:00;2.00;99.90
21772;DHT22;11047;47.904;8.110;2022-12-04T17:08:27;2.00;99.90
21772;DHT22;11047;47.904;8.110;2022-12-04T17:10:55;2.10;99.90
21772;DHT22;11047;47.904;8.110;2022-12-04T17:13:22;2.10;99.90
21772;DHT22;11047;47.904;8.110;2022-12-04T17:15:49;2.10;99.90
21772;DHT22;11047;47.904;8.110;2022-12-04T17:18:16;2.10;99.90
21772;DHT22;11047;47.904;8.110;2022-12-04T17:20:43;2.00;99.90
21772;DHT22;11047;47.904;8.110;2022-12-04T17:23:11;1.90;99.90
21772;DHT22;11047;47.904;8.110;2022-12-04T17:25:38;1.90;99.90
21772;DHT22;11047;47.904;8.110;2022-12-04T17:28:07;1.90;99.90
21772;DHT22;11047;47.904;8.110;2022-12-04T17:30:34;1.90;99.90
21772;DHT22;11047;47.904;8.110;2022-12-04T17:33:00;1.90;99.90
21772;DHT22;11047;47.904;8.110;2022-12-04T17:35:27;2.00;99.90
21772;DHT22;11047;47.904;8.110;2022-12-04T17:37:54;2.00;99.90